Terminal Aerodrome Forecast
Issued by NWS

Home | Current Version | Previous Version | Text Only | Print | Product List | Glossary On
Versions: 1 2 3 4 5 6 7 8 9 10 11 12 13 14 15 16 17
000
FTUS42 KGSP 290858 AAB
TAFGMU
TAF AMD
KGMU 290858Z 2909/3006 03009KT 4SM -RA BR SCT006 OVC029
     FM291100 03006KT 5SM -RA BR SCT010 OVC029
     FM291500 04008KT 1 1/2SM BR VCSH OVC017
     FM292000 07004KT P6SM VCSH OVC017
     FM292300 07003KT 5SM BR OVC010=

USA.gov is the U.S. government's official web portal to all federal, state and local government web resources and services.